sensor_id;sensor_type;location;lat;lon;timestamp;temperature;humidity
25933;DHT22;13731;51.166;4.474;2022-12-08T00:01:54;5.20;99.90
25933;DHT22;13731;51.166;4.474;2022-12-08T00:04:19;5.20;99.90
25933;DHT22;13731;51.166;4.474;2022-12-08T00:06:45;5.20;99.90
25933;DHT22;13731;51.166;4.474;2022-12-08T00:11:59;5.50;99.90
25933;DHT22;13731;51.166;4.474;2022-12-08T00:14:29;5.40;99.90
25933;DHT22;13731;51.166;4.474;2022-12-08T00:16:55;5.50;99.90
25933;DHT22;13731;51.166;4.474;2022-12-08T00:19:21;5.40;99.90
25933;DHT22;13731;51.166;4.474;2022-12-08T00:21:47;5.40;99.90
25933;DHT22;13731;51.166;4.474;2022-12-08T00:24:13;5.30;99.90
25933;DHT22;13731;51.166;4.474;2022-12-08T00:26:39;5.30;99.90
25933;DHT22;13731;51.166;4.474;2022-12-08T00:29:04;5.20;99.90
25933;DHT22;13731;51.166;4.474;2022-12-08T00:31:30;5.10;99.90
25933;DHT22;13731;51.166;4.474;2022-12-08T00:33:56;5.20;99.90
25933;DHT22;13731;51.166;4.474;2022-12-08T00:36:22;5.10;99.90
25933;DHT22;13731;51.166;4.474;2022-12-08T00:38:47;5.10;99.90
25933;DHT22;13731;51.166;4.474;2022-12-08T00:41:18;5.10;99.90
25933;DHT22;13731;51.166;4.474;2022-12-08T00:43:44;5.20;99.90
25933;DHT22;13731;51.166;4.474;2022-12-08T00:46:10;5.10;99.90
25933;DHT22;13731;51.166;4.474;2022-12-08T00:48:36;4.90;99.90
25933;DHT22;13731;51.166;4.474;2022-12-08T00:51:02;5.00;99.90
25933;DHT22;13731;51.166;4.474;2022-12-08T00:53:29;4.90;99.90
25933;DHT22;13731;51.166;4.474;2022-12-08T00:55:55;4.80;99.90
25933;DHT22;13731;51.166;4.474;2022-12-08T00:58:20;4.90;99.90
25933;DHT22;13731;51.166;4.474;2022-12-08T01:00:46;4.90;99.90
25933;DHT22;13731;51.166;4.474;2022-12-08T01:03:12;5.00;99.90
25933;DHT22;13731;51.166;4.474;2022-12-08T01:05:38;5.10;99.90
25933;DHT22;13731;51.166;4.474;2022-12-08T01:08:04;5.00;99.90
25933;DHT22;13731;51.166;4.474;2022-12-08T01:10:30;4.90;99.90
25933;DHT22;13731;51.166;4.474;2022-12-08T01:12:56;4.80;99.90
25933;DHT22;13731;51.166;4.474;2022-12-08T01:15:22;4.70;99.90
25933;DHT22;13731;51.166;4.474;2022-12-08T01:17:48;4.70;99.90
25933;DHT22;13731;51.166;4.474;2022-12-08T01:20:14;4.70;99.90
25933;DHT22;13731;51.166;4.474;2022-12-08T01:22:39;4.60;99.90
25933;DHT22;13731;51.166;4.474;2022-12-08T01:25:05;4.60;99.90
25933;DHT22;13731;51.166;4.474;2022-12-08T01:27:31;4.50;99.90
25933;DHT22;13731;51.166;4.474;2022-12-08T01:29:56;4.60;99.90
25933;DHT22;13731;51.166;4.474;2022-12-08T01:32:22;4.60;99.90
25933;DHT22;13731;51.166;4.474;2022-12-08T01:34:48;4.70;99.90
25933;DHT22;13731;51.166;4.474;2022-12-08T01:37:13;4.60;99.90
25933;DHT22;13731;51.166;4.474;2022-12-08T01:39:39;4.70;99.90
25933;DHT22;13731;51.166;4.474;2022-12-08T01:42:09;4.70;99.90
25933;DHT22;13731;51.166;4.474;2022-12-08T01:47:06;4.40;99.90
25933;DHT22;13731;51.166;4.474;2022-12-08T01:49:32;4.40;99.90
25933;DHT22;13731;51.166;4.474;2022-12-08T01:54:25;4.50;99.90
25933;DHT22;13731;51.166;4.474;2022-12-08T01:59:21;4.50;99.90
25933;DHT22;13731;51.166;4.474;2022-12-08T02:01:49;4.60;99.90
25933;DHT22;13731;51.166;4.474;2022-12-08T02:04:15;4.50;99.90
25933;DHT22;13731;51.166;4.474;2022-12-08T02:06:42;4.50;99.90
25933;DHT22;13731;51.166;4.474;2022-12-08T02:09:08;4.30;99.90
25933;DHT22;13731;51.166;4.474;2022-12-08T02:11:34;4.30;99.90
25933;DHT22;13731;51.166;4.474;2022-12-08T02:14:03;4.30;99.90
25933;DHT22;13731;51.166;4.474;2022-12-08T02:21:59;4.40;99.90
25933;DHT22;13731;51.166;4.474;2022-12-08T02:24:32;4.40;99.90
25933;DHT22;13731;51.166;4.474;2022-12-08T02:29:38;4.30;99.90
25933;DHT22;13731;51.166;4.474;2022-12-08T02:34:40;4.20;99.90
25933;DHT22;13731;51.166;4.474;2022-12-08T02:37:09;4.20;99.90
25933;DHT22;13731;51.166;4.474;2022-12-08T02:39:43;4.20;99.90
25933;DHT22;13731;51.166;4.474;2022-12-08T02:42:24;4.10;99.90
25933;DHT22;13731;51.166;4.474;2022-12-08T02:44:54;4.10;99.90
25933;DHT22;13731;51.166;4.474;2022-12-08T02:47:22;4.10;99.90
25933;DHT22;13731;51.166;4.474;2022-12-08T02:49:48;4.10;99.90
25933;DHT22;13731;51.166;4.474;2022-12-08T02:54:40;4.10;99.90
25933;DHT22;13731;51.166;4.474;2022-12-08T03:02:24;4.00;99.90
25933;DHT22;13731;51.166;4.474;2022-12-08T03:04:54;4.10;99.90
25933;DHT22;13731;51.166;4.474;2022-12-08T03:07:33;4.00;99.90
25933;DHT22;13731;51.166;4.474;2022-12-08T03:15:08;4.00;99.90
25933;DHT22;13731;51.166;4.474;2022-12-08T03:17:34;4.00;99.90
25933;DHT22;13731;51.166;4.474;2022-12-08T03:20:02;4.00;99.90
25933;DHT22;13731;51.166;4.474;2022-12-08T03:22:30;4.10;99.90
25933;DHT22;13731;51.166;4.474;2022-12-08T03:24:56;4.10;99.90
25933;DHT22;13731;51.166;4.474;2022-12-08T03:27:23;4.10;99.90
25933;DHT22;13731;51.166;4.474;2022-12-08T03:29:51;4.10;99.90
25933;DHT22;13731;51.166;4.474;2022-12-08T03:34:49;4.00;99.90
25933;DHT22;13731;51.166;4.474;2022-12-08T03:37:15;4.10;99.90
25933;DHT22;13731;51.166;4.474;2022-12-08T03:39:41;4.30;99.90
25933;DHT22;13731;51.166;4.474;2022-12-08T03:42:07;4.20;99.90
25933;DHT22;13731;51.166;4.474;2022-12-08T03:44:32;4.20;99.90
25933;DHT22;13731;51.166;4.474;2022-12-08T03:46:58;4.20;99.90
25933;DHT22;13731;51.166;4.474;2022-12-08T03:49:24;4.20;99.90
25933;DHT22;13731;51.166;4.474;2022-12-08T03:51:49;4.20;99.90
25933;DHT22;13731;51.166;4.474;2022-12-08T03:54:15;4.20;99.90
25933;DHT22;13731;51.166;4.474;2022-12-08T03:56:41;4.20;99.90
25933;DHT22;13731;51.166;4.474;2022-12-08T03:59:06;4.30;99.90
25933;DHT22;13731;51.166;4.474;2022-12-08T04:01:32;4.10;99.90
25933;DHT22;13731;51.166;4.474;2022-12-08T04:03:58;4.10;99.90
25933;DHT22;13731;51.166;4.474;2022-12-08T04:06:24;4.00;99.90
25933;DHT22;13731;51.166;4.474;2022-12-08T04:08:50;4.40;99.90
25933;DHT22;13731;51.166;4.474;2022-12-08T04:11:16;4.40;99.90
25933;DHT22;13731;51.166;4.474;2022-12-08T04:13:42;4.20;99.90
25933;DHT22;13731;51.166;4.474;2022-12-08T04:16:12;4.30;99.90
25933;DHT22;13731;51.166;4.474;2022-12-08T04:18:38;4.30;99.90
25933;DHT22;13731;51.166;4.474;2022-12-08T04:21:04;4.50;99.90
25933;DHT22;13731;51.166;4.474;2022-12-08T04:23:30;4.60;99.90
25933;DHT22;13731;51.166;4.474;2022-12-08T04:25:55;4.50;99.90
25933;DHT22;13731;51.166;4.474;2022-12-08T04:28:21;4.50;99.90
25933;DHT22;13731;51.166;4.474;2022-12-08T04:30:47;4.50;99.90
25933;DHT22;13731;51.166;4.474;2022-12-08T04:33:13;4.60;99.90
25933;DHT22;13731;51.166;4.474;2022-12-08T04:35:39;4.50;99.90
25933;DHT22;13731;51.166;4.474;2022-12-08T04:38:04;4.70;99.90
25933;DHT22;13731;51.166;4.474;2022-12-08T04:40:30;4.70;99.90
25933;DHT22;13731;51.166;4.474;2022-12-08T04:42:59;4.80;99.90
25933;DHT22;13731;51.166;4.474;2022-12-08T04:45:24;4.70;94.30
25933;DHT22;13731;51.166;4.474;2022-12-08T04:47:50;4.80;99.90
25933;DHT22;13731;51.166;4.474;2022-12-08T04:50:16;4.90;92.30
25933;DHT22;13731;51.166;4.474;2022-12-08T04:52:41;4.90;91.40
25933;DHT22;13731;51.166;4.474;2022-12-08T04:55:07;4.90;92.60
25933;DHT22;13731;51.166;4.474;2022-12-08T04:57:33;5.20;68.90
25933;DHT22;13731;51.166;4.474;2022-12-08T04:59:58;5.10;24.40
25933;DHT22;13731;51.166;4.474;2022-12-08T05:02:24;4.90;22.60
25933;DHT22;13731;51.166;4.474;2022-12-08T05:04:50;4.80;40.60
25933;DHT22;13731;51.166;4.474;2022-12-08T05:07:16;4.80;47.20
25933;DHT22;13731;51.166;4.474;2022-12-08T05:09:41;4.70;59.00
25933;DHT22;13731;51.166;4.474;2022-12-08T05:12:07;4.60;61.30
25933;DHT22;13731;51.166;4.474;2022-12-08T05:14:33;4.60;76.10
25933;DHT22;13731;51.166;4.474;2022-12-08T05:16:58;4.50;82.20
25933;DHT22;13731;51.166;4.474;2022-12-08T05:19:24;4.50;99.50
25933;DHT22;13731;51.166;4.474;2022-12-08T05:21:50;4.50;99.90
25933;DHT22;13731;51.166;4.474;2022-12-08T05:24:15;4.50;99.90
25933;DHT22;13731;51.166;4.474;2022-12-08T05:26:41;4.40;97.90
25933;DHT22;13731;51.166;4.474;2022-12-08T05:29:06;4.50;99.90
25933;DHT22;13731;51.166;4.474;2022-12-08T05:31:32;4.60;81.80
25933;DHT22;13731;51.166;4.474;2022-12-08T05:33:58;4.70;38.60
25933;DHT22;13731;51.166;4.474;2022-12-08T05:36:24;4.50;32.80
25933;DHT22;13731;51.166;4.474;2022-12-08T05:38:49;4.60;42.00
25933;DHT22;13731;51.166;4.474;2022-12-08T05:41:16;4.70;36.40
25933;DHT22;13731;51.166;4.474;2022-12-08T05:43:42;4.60;19.90
25933;DHT22;13731;51.166;4.474;2022-12-08T05:46:08;4.60;14.30
25933;DHT22;13731;51.166;4.474;2022-12-08T05:48:34;4.60;1.00
25933;DHT22;13731;51.166;4.474;2022-12-08T05:50:59;4.50;1.00
25933;DHT22;13731;51.166;4.474;2022-12-08T05:53:25;4.60;1.00
25933;DHT22;13731;51.166;4.474;2022-12-08T05:55:51;4.50;1.00
25933;DHT22;13731;51.166;4.474;2022-12-08T05:58:18;4.30;1.00
25933;DHT22;13731;51.166;4.474;2022-12-08T06:00:44;4.20;2.70
25933;DHT22;13731;51.166;4.474;2022-12-08T06:03:11;4.10;30.00
25933;DHT22;13731;51.166;4.474;2022-12-08T06:05:37;4.10;43.70
25933;DHT22;13731;51.166;4.474;2022-12-08T06:08:03;4.10;54.50
25933;DHT22;13731;51.166;4.474;2022-12-08T06:10:28;4.10;36.00
25933;DHT22;13731;51.166;4.474;2022-12-08T06:12:54;4.20;17.90
25933;DHT22;13731;51.166;4.474;2022-12-08T06:15:20;4.10;13.00
25933;DHT22;13731;51.166;4.474;2022-12-08T06:17:45;4.10;27.70
25933;DHT22;13731;51.166;4.474;2022-12-08T06:20:11;3.90;42.20
25933;DHT22;13731;51.166;4.474;2022-12-08T06:22:37;4.20;51.20
25933;DHT22;13731;51.166;4.474;2022-12-08T06:25:03;4.00;20.20
25933;DHT22;13731;51.166;4.474;2022-12-08T06:27:28;3.80;39.60
25933;DHT22;13731;51.166;4.474;2022-12-08T06:29:54;3.70;73.40
25933;DHT22;13731;51.166;4.474;2022-12-08T06:32:20;3.80;92.80
25933;DHT22;13731;51.166;4.474;2022-12-08T06:34:46;3.80;85.90
25933;DHT22;13731;51.166;4.474;2022-12-08T06:37:11;3.80;95.00
25933;DHT22;13731;51.166;4.474;2022-12-08T06:39:37;3.70;92.50
25933;DHT22;13731;51.166;4.474;2022-12-08T06:42:03;3.80;94.40
25933;DHT22;13731;51.166;4.474;2022-12-08T06:44:47;3.80;92.50
25933;DHT22;13731;51.166;4.474;2022-12-08T06:47:13;3.70;94.00
25933;DHT22;13731;51.166;4.474;2022-12-08T06:49:38;3.70;99.90
25933;DHT22;13731;51.166;4.474;2022-12-08T06:52:04;3.90;98.00
25933;DHT22;13731;51.166;4.474;2022-12-08T06:54:30;4.00;80.40
25933;DHT22;13731;51.166;4.474;2022-12-08T06:56:55;4.00;42.00
25933;DHT22;13731;51.166;4.474;2022-12-08T06:59:21;3.90;30.30
25933;DHT22;13731;51.166;4.474;2022-12-08T07:01:47;3.90;41.80
25933;DHT22;13731;51.166;4.474;2022-12-08T07:04:12;3.80;29.40
25933;DHT22;13731;51.166;4.474;2022-12-08T07:06:38;3.70;67.90
25933;DHT22;13731;51.166;4.474;2022-12-08T07:09:04;3.70;88.80
25933;DHT22;13731;51.166;4.474;2022-12-08T07:11:29;3.80;92.90
25933;DHT22;13731;51.166;4.474;2022-12-08T07:13:55;3.90;59.20
25933;DHT22;13731;51.166;4.474;2022-12-08T07:16:21;4.00;45.40
25933;DHT22;13731;51.166;4.474;2022-12-08T07:18:47;4.10;29.00
25933;DHT22;13731;51.166;4.474;2022-12-08T07:21:13;3.90;12.00
25933;DHT22;13731;51.166;4.474;2022-12-08T07:23:42;3.80;47.80
25933;DHT22;13731;51.166;4.474;2022-12-08T07:26:09;3.80;41.30
25933;DHT22;13731;51.166;4.474;2022-12-08T07:28:36;3.80;47.40
25933;DHT22;13731;51.166;4.474;2022-12-08T07:31:02;3.80;46.30
25933;DHT22;13731;51.166;4.474;2022-12-08T07:33:28;3.80;49.00
25933;DHT22;13731;51.166;4.474;2022-12-08T07:35:57;3.80;41.70
25933;DHT22;13731;51.166;4.474;2022-12-08T07:38:23;3.80;44.50
25933;DHT22;13731;51.166;4.474;2022-12-08T07:40:50;3.80;59.10
25933;DHT22;13731;51.166;4.474;2022-12-08T07:43:15;3.70;64.80
25933;DHT22;13731;51.166;4.474;2022-12-08T07:45:41;3.80;66.20
25933;DHT22;13731;51.166;4.474;2022-12-08T07:48:07;3.80;64.90
25933;DHT22;13731;51.166;4.474;2022-12-08T07:50:32;3.70;61.80
25933;DHT22;13731;51.166;4.474;2022-12-08T07:52:58;3.70;79.30
25933;DHT22;13731;51.166;4.474;2022-12-08T07:55:24;3.70;90.90
25933;DHT22;13731;51.166;4.474;2022-12-08T07:57:50;3.80;89.80
25933;DHT22;13731;51.166;4.474;2022-12-08T08:00:16;3.90;78.40
25933;DHT22;13731;51.166;4.474;2022-12-08T08:02:42;3.80;59.50
25933;DHT22;13731;51.166;4.474;2022-12-08T08:05:08;3.90;59.80
25933;DHT22;13731;51.166;4.474;2022-12-08T08:07:34;4.00;60.90
25933;DHT22;13731;51.166;4.474;2022-12-08T08:10:00;4.00;39.70
25933;DHT22;13731;51.166;4.474;2022-12-08T08:12:26;4.10;20.50
25933;DHT22;13731;51.166;4.474;2022-12-08T08:14:52;4.00;1.00
25933;DHT22;13731;51.166;4.474;2022-12-08T08:17:17;4.10;1.00
25933;DHT22;13731;51.166;4.474;2022-12-08T08:19:44;4.20;1.00
25933;DHT22;13731;51.166;4.474;2022-12-08T08:22:10;4.20;1.00
25933;DHT22;13731;51.166;4.474;2022-12-08T08:24:36;4.20;1.00
25933;DHT22;13731;51.166;4.474;2022-12-08T08:27:01;4.10;1.00
25933;DHT22;13731;51.166;4.474;2022-12-08T08:29:27;4.30;1.00
25933;DHT22;13731;51.166;4.474;2022-12-08T08:31:53;4.30;1.00
25933;DHT22;13731;51.166;4.474;2022-12-08T08:34:18;4.30;1.00
25933;DHT22;13731;51.166;4.474;2022-12-08T08:36:44;4.20;1.00
25933;DHT22;13731;51.166;4.474;2022-12-08T08:39:10;4.40;1.00
25933;DHT22;13731;51.166;4.474;2022-12-08T08:41:37;4.50;1.00
25933;DHT22;13731;51.166;4.474;2022-12-08T08:44:02;4.50;1.00
25933;DHT22;13731;51.166;4.474;2022-12-08T08:46:28;4.50;1.00
25933;DHT22;13731;51.166;4.474;2022-12-08T08:48:54;4.40;1.00
25933;DHT22;13731;51.166;4.474;2022-12-08T08:51:20;4.50;1.00
25933;DHT22;13731;51.166;4.474;2022-12-08T08:53:45;4.40;1.00
25933;DHT22;13731;51.166;4.474;2022-12-08T08:56:12;4.40;1.00
25933;DHT22;13731;51.166;4.474;2022-12-08T08:58:38;4.30;1.00
25933;DHT22;13731;51.166;4.474;2022-12-08T09:01:03;4.40;1.00
25933;DHT22;13731;51.166;4.474;2022-12-08T09:03:29;4.50;1.00
25933;DHT22;13731;51.166;4.474;2022-12-08T09:05:55;4.40;1.00
25933;DHT22;13731;51.166;4.474;2022-12-08T09:08:22;4.50;1.00
25933;DHT22;13731;51.166;4.474;2022-12-08T09:10:48;4.40;1.00
25933;DHT22;13731;51.166;4.474;2022-12-08T09:13:14;4.30;1.00
25933;DHT22;13731;51.166;4.474;2022-12-08T09:15:39;4.40;99.90
25933;DHT22;13731;51.166;4.474;2022-12-08T09:18:05;4.20;99.90
25933;DHT22;13731;51.166;4.474;2022-12-08T09:20:31;4.20;1.00
25933;DHT22;13731;51.166;4.474;2022-12-08T09:22:57;4.20;1.00
25933;DHT22;13731;51.166;4.474;2022-12-08T09:25:23;4.10;1.00
25933;DHT22;13731;51.166;4.474;2022-12-08T09:27:48;4.10;1.00
25933;DHT22;13731;51.166;4.474;2022-12-08T09:30:14;4.20;1.00
25933;DHT22;13731;51.166;4.474;2022-12-08T09:32:40;4.10;1.00
25933;DHT22;13731;51.166;4.474;2022-12-08T09:35:05;4.20;1.00
25933;DHT22;13731;51.166;4.474;2022-12-08T09:37:31;4.30;99.90
25933;DHT22;13731;51.166;4.474;2022-12-08T09:39:57;4.30;99.90
25933;DHT22;13731;51.166;4.474;2022-12-08T09:42:30;4.40;99.90
25933;DHT22;13731;51.166;4.474;2022-12-08T09:45:02;4.80;99.90
25933;DHT22;13731;51.166;4.474;2022-12-08T09:47:29;5.60;1.00
25933;DHT22;13731;51.166;4.474;2022-12-08T09:52:25;6.80;25.80
25933;DHT22;13731;51.166;4.474;2022-12-08T09:54:52;6.90;1.00
25933;DHT22;13731;51.166;4.474;2022-12-08T09:57:19;6.40;1.00
25933;DHT22;13731;51.166;4.474;2022-12-08T09:59:48;6.70;1.00
25933;DHT22;13731;51.166;4.474;2022-12-08T10:02:22;7.10;99.90
25933;DHT22;13731;51.166;4.474;2022-12-08T10:04:48;7.50;1.00
25933;DHT22;13731;51.166;4.474;2022-12-08T10:12:53;8.20;1.00
25933;DHT22;13731;51.166;4.474;2022-12-08T10:17:53;7.70;12.60
25933;DHT22;13731;51.166;4.474;2022-12-08T10:20:23;8.00;1.00
25933;DHT22;13731;51.166;4.474;2022-12-08T10:22:50;7.90;1.00
25933;DHT22;13731;51.166;4.474;2022-12-08T10:25:21;8.10;1.00
25933;DHT22;13731;51.166;4.474;2022-12-08T10:27:52;8.50;1.00
25933;DHT22;13731;51.166;4.474;2022-12-08T10:30:18;8.60;27.30
25933;DHT22;13731;51.166;4.474;2022-12-08T10:32:50;8.20;99.90
25933;DHT22;13731;51.166;4.474;2022-12-08T10:35:17;8.00;99.90
25933;DHT22;13731;51.166;4.474;2022-12-08T10:37:53;7.80;99.90
25933;DHT22;13731;51.166;4.474;2022-12-08T10:40:19;7.00;99.90
25933;DHT22;13731;51.166;4.474;2022-12-08T10:42:46;6.70;99.90
25933;DHT22;13731;51.166;4.474;2022-12-08T10:47:43;6.40;24.70
25933;DHT22;13731;51.166;4.474;2022-12-08T10:52:43;6.40;1.00
25933;DHT22;13731;51.166;4.474;2022-12-08T10:55:12;6.50;1.00
25933;DHT22;13731;51.166;4.474;2022-12-08T10:57:38;6.20;99.90
25933;DHT22;13731;51.166;4.474;2022-12-08T11:00:04;6.20;99.90
25933;DHT22;13731;51.166;4.474;2022-12-08T11:02:30;6.10;12.20
25933;DHT22;13731;51.166;4.474;2022-12-08T11:04:56;6.00;99.90
25933;DHT22;13731;51.166;4.474;2022-12-08T11:07:23;5.80;99.90
25933;DHT22;13731;51.166;4.474;2022-12-08T11:09:52;5.80;1.00
25933;DHT22;13731;51.166;4.474;2022-12-08T11:12:19;5.90;99.90
25933;DHT22;13731;51.166;4.474;2022-12-08T11:17:12;6.20;1.00
25933;DHT22;13731;51.166;4.474;2022-12-08T11:19:40;6.30;1.00
25933;DHT22;13731;51.166;4.474;2022-12-08T11:22:25;6.40;1.00
25933;DHT22;13731;51.166;4.474;2022-12-08T11:24:58;6.40;99.90
25933;DHT22;13731;51.166;4.474;2022-12-08T11:27:24;6.30;62.80
25933;DHT22;13731;51.166;4.474;2022-12-08T11:29:50;6.40;99.90
25933;DHT22;13731;51.166;4.474;2022-12-08T11:32:16;6.40;99.90
25933;DHT22;13731;51.166;4.474;2022-12-08T11:35:01;6.40;99.90
25933;DHT22;13731;51.166;4.474;2022-12-08T11:39:54;6.50;1.00
25933;DHT22;13731;51.166;4.474;2022-12-08T11:42:22;6.30;1.00
25933;DHT22;13731;51.166;4.474;2022-12-08T11:48:03;6.30;99.90
25933;DHT22;13731;51.166;4.474;2022-12-08T11:52:39;6.00;1.00
25933;DHT22;13731;51.166;4.474;2022-12-08T11:58:15;6.20;1.00
25933;DHT22;13731;51.166;4.474;2022-12-08T12:00:42;6.30;1.00
25933;DHT22;13731;51.166;4.474;2022-12-08T12:03:11;6.60;99.90
25933;DHT22;13731;51.166;4.474;2022-12-08T12:05:51;6.90;99.90
25933;DHT22;13731;51.166;4.474;2022-12-08T12:11:25;6.70;16.00
25933;DHT22;13731;51.166;4.474;2022-12-08T12:14:16;6.80;52.40
25933;DHT22;13731;51.166;4.474;2022-12-08T12:16:57;7.30;44.50
25933;DHT22;13731;51.166;4.474;2022-12-08T12:19:24;7.30;1.00
25933;DHT22;13731;51.166;4.474;2022-12-08T12:21:53;7.20;99.90
25933;DHT22;13731;51.166;4.474;2022-12-08T12:24:20;7.10;99.90
25933;DHT22;13731;51.166;4.474;2022-12-08T12:26:57;7.20;99.90
25933;DHT22;13731;51.166;4.474;2022-12-08T12:29:28;7.20;1.00
25933;DHT22;13731;51.166;4.474;2022-12-08T12:31:56;7.00;1.00
25933;DHT22;13731;51.166;4.474;2022-12-08T12:34:27;6.90;99.90
25933;DHT22;13731;51.166;4.474;2022-12-08T12:36:58;6.90;99.90
25933;DHT22;13731;51.166;4.474;2022-12-08T12:39:28;6.60;1.00
25933;DHT22;13731;51.166;4.474;2022-12-08T12:42:01;6.60;1.00
25933;DHT22;13731;51.166;4.474;2022-12-08T12:46:56;6.80;1.00
25933;DHT22;13731;51.166;4.474;2022-12-08T12:52:48;7.30;30.30
25933;DHT22;13731;51.166;4.474;2022-12-08T12:57:19;6.00;1.00
25933;DHT22;13731;51.166;4.474;2022-12-08T13:02:25;5.20;1.00
25933;DHT22;13731;51.166;4.474;2022-12-08T13:04:53;5.00;1.00
25933;DHT22;13731;51.166;4.474;2022-12-08T13:07:20;4.90;1.00
25933;DHT22;13731;51.166;4.474;2022-12-08T13:09:47;4.60;99.90
25933;DHT22;13731;51.166;4.474;2022-12-08T13:12:21;4.40;99.90
25933;DHT22;13731;51.166;4.474;2022-12-08T13:14:48;4.60;1.00
25933;DHT22;13731;51.166;4.474;2022-12-08T13:17:16;4.20;1.00
25933;DHT22;13731;51.166;4.474;2022-12-08T13:19:44;4.00;99.90
25933;DHT22;13731;51.166;4.474;2022-12-08T13:25:34;4.10;1.00
25933;DHT22;13731;51.166;4.474;2022-12-08T13:27:50;4.20;1.00
25933;DHT22;13731;51.166;4.474;2022-12-08T13:33:00;4.40;1.00
25933;DHT22;13731;51.166;4.474;2022-12-08T13:35:26;4.40;99.90
25933;DHT22;13731;51.166;4.474;2022-12-08T13:37:52;4.20;1.00
25933;DHT22;13731;51.166;4.474;2022-12-08T13:40:25;4.20;1.00
25933;DHT22;13731;51.166;4.474;2022-12-08T13:43:05;4.20;1.00
25933;DHT22;13731;51.166;4.474;2022-12-08T13:45:35;4.10;1.00
25933;DHT22;13731;51.166;4.474;2022-12-08T13:50:49;4.10;1.00
25933;DHT22;13731;51.166;4.474;2022-12-08T13:53:16;4.10;1.00
25933;DHT22;13731;51.166;4.474;2022-12-08T13:55:47;4.10;1.00
25933;DHT22;13731;51.166;4.474;2022-12-08T14:00:51;4.00;1.00
25933;DHT22;13731;51.166;4.474;2022-12-08T14:03:17;4.00;1.00
25933;DHT22;13731;51.166;4.474;2022-12-08T14:05:43;4.10;1.00
25933;DHT22;13731;51.166;4.474;2022-12-08T14:08:24;4.20;1.00
25933;DHT22;13731;51.166;4.474;2022-12-08T14:10:56;4.20;1.00
25933;DHT22;13731;51.166;4.474;2022-12-08T14:13:23;4.30;1.00
25933;DHT22;13731;51.166;4.474;2022-12-08T14:15:49;4.40;1.00
25933;DHT22;13731;51.166;4.474;2022-12-08T14:18:28;4.20;1.00
25933;DHT22;13731;51.166;4.474;2022-12-08T14:21:01;4.20;1.00
25933;DHT22;13731;51.166;4.474;2022-12-08T14:23:26;4.30;1.00
25933;DHT22;13731;51.166;4.474;2022-12-08T14:25:52;4.30;1.00
25933;DHT22;13731;51.166;4.474;2022-12-08T14:28:18;4.30;1.00
25933;DHT22;13731;51.166;4.474;2022-12-08T14:30:43;4.20;1.00
25933;DHT22;13731;51.166;4.474;2022-12-08T14:33:13;4.20;1.00
25933;DHT22;13731;51.166;4.474;2022-12-08T14:35:39;4.30;1.00
25933;DHT22;13731;51.166;4.474;2022-12-08T14:38:11;4.40;1.00
25933;DHT22;13731;51.166;4.474;2022-12-08T14:40:37;4.40;1.00
25933;DHT22;13731;51.166;4.474;2022-12-08T14:43:09;4.40;1.00
25933;DHT22;13731;51.166;4.474;2022-12-08T14:48:25;4.50;1.00
25933;DHT22;13731;51.166;4.474;2022-12-08T14:53:16;4.60;1.00
25933;DHT22;13731;51.166;4.474;2022-12-08T14:55:42;4.60;1.00
25933;DHT22;13731;51.166;4.474;2022-12-08T14:58:42;4.40;1.00
25933;DHT22;13731;51.166;4.474;2022-12-08T15:01:01;4.50;1.00
25933;DHT22;13731;51.166;4.474;2022-12-08T15:03:30;4.60;1.00
25933;DHT22;13731;51.166;4.474;2022-12-08T15:05:57;4.30;1.00
25933;DHT22;13731;51.166;4.474;2022-12-08T15:08:22;4.00;1.00
25933;DHT22;13731;51.166;4.474;2022-12-08T15:13:32;4.20;1.00
25933;DHT22;13731;51.166;4.474;2022-12-08T15:15:58;4.10;1.00
25933;DHT22;13731;51.166;4.474;2022-12-08T15:20:54;4.00;1.80
25933;DHT22;13731;51.166;4.474;2022-12-08T15:25:50;3.90;6.10
25933;DHT22;13731;51.166;4.474;2022-12-08T15:28:16;3.90;20.80
25933;DHT22;13731;51.166;4.474;2022-12-08T15:30:42;3.80;22.50
25933;DHT22;13731;51.166;4.474;2022-12-08T15:33:08;3.90;34.00
25933;DHT22;13731;51.166;4.474;2022-12-08T15:35:34;4.00;18.40
25933;DHT22;13731;51.166;4.474;2022-12-08T15:37:59;3.80;24.10
25933;DHT22;13731;51.166;4.474;2022-12-08T15:40:25;3.80;52.70
25933;DHT22;13731;51.166;4.474;2022-12-08T15:42:51;3.90;63.90
25933;DHT22;13731;51.166;4.474;2022-12-08T15:45:17;3.90;57.10
25933;DHT22;13731;51.166;4.474;2022-12-08T15:47:46;3.80;48.20
25933;DHT22;13731;51.166;4.474;2022-12-08T15:50:15;3.80;50.30
25933;DHT22;13731;51.166;4.474;2022-12-08T15:52:42;3.80;52.10
25933;DHT22;13731;51.166;4.474;2022-12-08T15:55:12;3.70;62.40
25933;DHT22;13731;51.166;4.474;2022-12-08T15:57:38;3.80;78.80
25933;DHT22;13731;51.166;4.474;2022-12-08T16:00:04;3.70;76.50
25933;DHT22;13731;51.166;4.474;2022-12-08T16:02:30;3.70;88.80
25933;DHT22;13731;51.166;4.474;2022-12-08T16:04:56;3.80;96.40
25933;DHT22;13731;51.166;4.474;2022-12-08T16:07:28;3.80;97.80
25933;DHT22;13731;51.166;4.474;2022-12-08T16:09:54;3.80;99.90
25933;DHT22;13731;51.166;4.474;2022-12-08T16:12:24;3.90;99.90
25933;DHT22;13731;51.166;4.474;2022-12-08T16:15:09;3.90;92.30
25933;DHT22;13731;51.166;4.474;2022-12-08T16:17:35;3.80;71.50
25933;DHT22;13731;51.166;4.474;2022-12-08T16:20:02;3.70;74.70
25933;DHT22;13731;51.166;4.474;2022-12-08T16:22:29;3.60;96.40
25933;DHT22;13731;51.166;4.474;2022-12-08T16:24:56;3.50;99.90
25933;DHT22;13731;51.166;4.474;2022-12-08T16:27:28;3.60;99.90
25933;DHT22;13731;51.166;4.474;2022-12-08T16:29:54;3.70;99.90
25933;DHT22;13731;51.166;4.474;2022-12-08T16:32:20;3.90;99.90
25933;DHT22;13731;51.166;4.474;2022-12-08T16:34:46;3.70;94.60
25933;DHT22;13731;51.166;4.474;2022-12-08T16:37:18;3.70;99.90
25933;DHT22;13731;51.166;4.474;2022-12-08T16:39:45;3.80;99.90
25933;DHT22;13731;51.166;4.474;2022-12-08T16:42:21;3.80;99.90
25933;DHT22;13731;51.166;4.474;2022-12-08T16:45:24;3.80;99.90
25933;DHT22;13731;51.166;4.474;2022-12-08T16:47:51;3.70;99.90
25933;DHT22;13731;51.166;4.474;2022-12-08T16:50:18;3.80;99.60
25933;DHT22;13731;51.166;4.474;2022-12-08T16:52:44;3.90;91.50
25933;DHT22;13731;51.166;4.474;2022-12-08T16:55:11;3.90;75.00
25933;DHT22;13731;51.166;4.474;2022-12-08T16:57:37;3.80;68.90
25933;DHT22;13731;51.166;4.474;2022-12-08T17:00:04;3.80;57.50
25933;DHT22;13731;51.166;4.474;2022-12-08T17:02:30;3.80;53.60
25933;DHT22;13731;51.166;4.474;2022-12-08T17:04:56;3.90;50.40
25933;DHT22;13731;51.166;4.474;2022-12-08T17:07:21;3.90;25.00
25933;DHT22;13731;51.166;4.474;2022-12-08T17:09:47;3.70;9.50
25933;DHT22;13731;51.166;4.474;2022-12-08T17:12:13;3.60;14.70
25933;DHT22;13731;51.166;4.474;2022-12-08T17:14:38;3.50;22.60
25933;DHT22;13731;51.166;4.474;2022-12-08T17:17:04;3.40;57.00
25933;DHT22;13731;51.166;4.474;2022-12-08T17:19:30;3.30;70.30
25933;DHT22;13731;51.166;4.474;2022-12-08T17:21:56;3.30;72.00
25933;DHT22;13731;51.166;4.474;2022-12-08T17:24:22;3.40;75.40
25933;DHT22;13731;51.166;4.474;2022-12-08T17:26:49;3.30;61.30
25933;DHT22;13731;51.166;4.474;2022-12-08T17:29:16;3.10;79.00
25933;DHT22;13731;51.166;4.474;2022-12-08T17:31:43;3.00;99.90
25933;DHT22;13731;51.166;4.474;2022-12-08T17:34:09;2.90;99.90